createdAt,value
2023-01-04T00:01:20.369Z,35.72
2023-01-04T00:03:47.650Z,36.38
2023-01-04T00:06:16.672Z,41.88
2023-01-04T00:08:44.101Z,36.03
2023-01-04T00:11:18.012Z,38.40
2023-01-04T00:13:45.978Z,42.30
2023-01-04T00:16:16.060Z,40.28
2023-01-04T00:18:43.353Z,38.25
2023-01-04T00:21:22.060Z,40.08
2023-01-04T00:23:50.737Z,35.75
2023-01-04T00:26:20.566Z,32.50
2023-01-04T00:28:53.855Z,39.67
2023-01-04T00:31:22.187Z,36.95
2023-01-04T00:33:49.594Z,39.35
2023-01-04T00:36:16.562Z,38.50
2023-01-04T00:38:43.413Z,37.45
2023-01-04T00:41:28.271Z,38.78
2023-01-04T00:44:03.478Z,40.60
2023-01-04T00:46:31.783Z,39.97
2023-01-04T00:49:00.675Z,43.97
2023-01-04T00:51:28.868Z,38.72
2023-01-04T00:53:55.973Z,40.58
2023-01-04T00:56:22.940Z,42.63
2023-01-04T00:58:49.872Z,36.47
2023-01-04T01:01:16.787Z,38.47
2023-01-04T01:03:44.495Z,35.40
2023-01-04T01:06:12.561Z,34.50
2023-01-04T01:08:39.583Z,36.60
2023-01-04T01:11:09.472Z,37.42
2023-01-04T01:13:37.954Z,37.88
2023-01-04T01:16:06.604Z,37.80
2023-01-04T01:18:39.113Z,32.70
2023-01-04T01:21:08.378Z,31.02
2023-01-04T01:23:35.303Z,30.25
2023-01-04T01:26:04.175Z,29.30
2023-01-04T01:28:31.213Z,31.40
2023-01-04T01:31:03.766Z,31.27
2023-01-04T01:33:36.835Z,32.78
2023-01-04T01:36:04.597Z,34.63
2023-01-04T01:38:31.723Z,29.85
2023-01-04T01:40:58.637Z,28.75
2023-01-04T01:43:48.852Z,30.77
2023-01-04T01:46:18.929Z,30.02
2023-01-04T01:48:46.202Z,29.08
2023-01-04T01:51:17.685Z,26.45
2023-01-04T01:53:46.850Z,29.55
2023-01-04T01:56:17.520Z,30.98
2023-01-04T01:58:47.500Z,33.13
2023-01-04T02:01:17.020Z,30.75
2023-01-04T02:03:44.335Z,30.00
2023-01-04T02:06:14.002Z,27.83
2023-01-04T02:08:42.994Z,30.50
2023-01-04T02:11:10.383Z,30.08
2023-01-04T02:13:57.606Z,29.05
2023-01-04T02:16:24.510Z,34.67
2023-01-04T02:19:27.680Z,29.05
2023-01-04T02:22:09.905Z,28.50
2023-01-04T02:24:50.062Z,28.80
2023-01-04T02:27:53.551Z,28.23
2023-01-04T02:30:32.584Z,29.80
2023-01-04T02:33:23.725Z,30.63
2023-01-04T02:36:18.135Z,28.67
2023-01-04T02:39:12.727Z,28.58
2023-01-04T02:41:58.205Z,26.45
2023-01-04T02:44:53.509Z,27.83
2023-01-04T02:47:52.083Z,27.77
2023-01-04T02:50:33.617Z,29.92
2023-01-04T02:53:12.655Z,31.37
2023-01-04T02:55:58.166Z,28.00
2023-01-04T02:58:37.467Z,31.75
2023-01-04T03:01:50.059Z,33.70
2023-01-04T03:04:47.127Z,29.58
2023-01-04T03:07:31.779Z,32.70
2023-01-04T03:10:28.754Z,32.83
2023-01-04T03:13:15.935Z,32.83
2023-01-04T03:15:48.602Z,34.80
2023-01-04T03:18:43.673Z,34.05
2023-01-04T03:21:13.320Z,38.45
2023-01-04T03:23:59.789Z,30.70
2023-01-04T03:27:02.845Z,29.75
2023-01-04T03:29:57.592Z,30.88
2023-01-04T03:33:02.647Z,31.00
2023-01-04T03:35:54.741Z,33.50
2023-01-04T03:39:12.933Z,32.83
2023-01-04T03:42:17.267Z,38.75
2023-01-04T03:45:09.960Z,37.33
2023-01-04T03:48:14.248Z,37.30
2023-01-04T03:50:57.499Z,39.97
2023-01-04T03:53:26.830Z,37.30
2023-01-04T03:55:55.711Z,37.15
2023-01-04T03:58:23.018Z,39.50
2023-01-04T04:00:49.968Z,40.35
2023-01-04T04:03:17.264Z,44.80
2023-01-04T04:06:04.782Z,41.13
2023-01-04T04:08:31.627Z,47.97
2023-01-04T04:11:19.734Z,45.83
2023-01-04T04:13:47.630Z,43.05
2023-01-04T04:16:14.727Z,52.05
2023-01-04T04:18:41.672Z,47.03
2023-01-04T04:21:08.742Z,55.08
2023-01-04T04:23:35.550Z,44.25
2023-01-04T04:26:02.576Z,43.38
2023-01-04T04:28:29.388Z,47.72
2023-01-04T04:30:56.426Z,44.17
2023-01-04T04:33:23.276Z,39.03
2023-01-04T04:35:54.763Z,35.30
2023-01-04T04:38:22.221Z,25.67
2023-01-04T04:41:08.162Z,41.28
2023-01-04T04:43:35.698Z,35.80
2023-01-04T04:46:03.183Z,37.28
2023-01-04T04:48:30.279Z,37.50
2023-01-04T04:50:57.269Z,33.65
2023-01-04T04:53:24.175Z,35.25
2023-01-04T04:55:52.301Z,33.65
2023-01-04T04:58:19.368Z,40.60
2023-01-04T05:00:46.288Z,32.28
2023-01-04T05:03:13.259Z,34.45
2023-01-04T05:05:40.072Z,33.42
2023-01-04T05:08:06.995Z,35.70
2023-01-04T05:10:33.890Z,31.80
2023-01-04T05:13:00.702Z,33.65
2023-01-04T05:15:42.030Z,30.73
2023-01-04T05:18:10.580Z,31.60
2023-01-04T05:20:37.804Z,29.80
2023-01-04T05:23:06.134Z,30.55
2023-01-04T05:25:33.180Z,32.30
2023-01-04T05:28:00.943Z,36.65
2023-01-04T05:30:46.092Z,34.05
2023-01-04T05:33:13.152Z,33.00
2023-01-04T05:35:40.036Z,29.77
2023-01-04T05:38:07.002Z,30.60
2023-01-04T05:40:33.928Z,31.15
2023-01-04T05:43:00.791Z,34.72
2023-01-04T05:45:28.404Z,31.63
2023-01-04T05:47:55.375Z,33.28
2023-01-04T05:50:23.757Z,30.40
2023-01-04T05:52:51.532Z,30.30
2023-01-04T05:55:19.057Z,33.80
2023-01-04T05:57:46.746Z,31.95
2023-01-04T06:00:14.651Z,33.92
2023-01-04T06:02:42.689Z,33.28
2023-01-04T06:05:11.173Z,34.17
2023-01-04T06:07:39.572Z,36.55
2023-01-04T06:10:11.461Z,34.28
2023-01-04T06:12:39.280Z,37.38
2023-01-04T06:15:07.552Z,30.17
2023-01-04T06:17:34.870Z,28.98
2023-01-04T06:20:02.580Z,29.98
2023-01-04T06:22:29.851Z,30.05
2023-01-04T06:24:56.717Z,30.67
2023-01-04T06:27:23.498Z,27.70
2023-01-04T06:29:50.348Z,28.95
2023-01-04T06:32:17.175Z,29.67
2023-01-04T06:34:44.099Z,24.33
2023-01-04T06:37:12.010Z,31.17
2023-01-04T06:39:39.032Z,28.25
2023-01-04T06:42:07.291Z,44.03
2023-01-04T06:44:34.573Z,33.88
2023-01-04T06:47:04.089Z,32.70
2023-01-04T06:49:30.888Z,34.75
2023-01-04T06:51:57.892Z,35.75
2023-01-04T06:54:25.120Z,30.08
2023-01-04T06:56:51.984Z,27.98
2023-01-04T06:59:18.785Z,29.30
2023-01-04T07:01:45.943Z,29.70
2023-01-04T07:04:13.129Z,28.08
2023-01-04T07:06:40.165Z,27.90
2023-01-04T07:09:08.496Z,28.77
2023-01-04T07:11:36.117Z,27.08
2023-01-04T07:16:46.601Z,27.25
2023-01-04T07:19:16.112Z,24.15
2023-01-04T07:21:46.099Z,31.10
2023-01-04T07:24:30.084Z,30.25
2023-01-04T07:27:11.779Z,29.98
2023-01-04T07:29:41.599Z,33.08
2023-01-04T07:32:16.122Z,32.63
2023-01-04T07:34:44.015Z,29.88
2023-01-04T07:37:11.682Z,27.83
2023-01-04T07:39:38.721Z,33.08
2023-01-04T07:42:05.832Z,40.65
2023-01-04T07:44:32.631Z,39.25
2023-01-04T07:46:59.480Z,46.53
2023-01-04T07:49:27.918Z,43.33
2023-01-04T07:51:54.882Z,41.00
2023-01-04T07:57:08.035Z,39.95
2023-01-04T07:59:34.991Z,39.35
2023-01-04T08:02:02.267Z,38.15
2023-01-04T08:04:34.650Z,38.45
2023-01-04T08:07:04.713Z,42.67
2023-01-04T08:09:31.508Z,39.15
2023-01-04T08:12:07.397Z,39.38
2023-01-04T08:14:34.216Z,37.30
2023-01-04T08:17:01.157Z,37.13
2023-01-04T08:19:28.215Z,42.17
2023-01-04T08:21:55.437Z,45.72
2023-01-04T08:24:22.399Z,45.58
2023-01-04T08:26:49.342Z,50.83
2023-01-04T08:29:16.758Z,46.58
2023-01-04T08:31:45.178Z,43.97
2023-01-04T08:34:14.520Z,50.00
2023-01-04T08:36:50.263Z,42.30
2023-01-04T08:39:17.864Z,42.08
2023-01-04T08:42:00.795Z,37.47
2023-01-04T08:44:30.366Z,36.40
2023-01-04T08:47:15.607Z,40.15
2023-01-04T08:49:43.169Z,39.53
2023-01-04T08:52:12.418Z,39.00
2023-01-04T08:54:39.216Z,35.00
2023-01-04T08:57:06.981Z,42.08
2023-01-04T08:59:33.881Z,37.90
2023-01-04T09:02:05.407Z,36.95
2023-01-04T09:07:00.744Z,34.53
2023-01-04T09:09:30.384Z,36.15
2023-01-04T09:11:57.586Z,37.22
2023-01-04T09:14:25.845Z,37.13
2023-01-04T09:16:55.009Z,38.08
2023-01-04T09:19:22.699Z,33.83
2023-01-04T09:21:49.936Z,38.58
2023-01-04T09:24:17.147Z,35.08
2023-01-04T09:26:44.177Z,38.53
2023-01-04T09:29:11.579Z,37.72
2023-01-04T09:31:42.326Z,37.17
2023-01-04T09:34:14.522Z,38.42
2023-01-04T09:36:41.965Z,37.00
2023-01-04T09:39:13.276Z,40.38
2023-01-04T09:41:50.339Z,35.33
2023-01-04T09:44:22.918Z,36.22
2023-01-04T09:46:55.004Z,37.47
2023-01-04T09:52:13.583Z,41.45
2023-01-04T09:55:04.920Z,40.90
2023-01-04T09:57:59.910Z,39.92
2023-01-04T10:00:43.441Z,45.67
2023-01-04T10:03:29.226Z,49.42
2023-01-04T10:05:57.947Z,39.83
2023-01-04T10:08:25.384Z,47.85
2023-01-04T10:10:55.499Z,42.13
2023-01-04T10:13:33.355Z,40.17
2023-01-04T10:16:30.316Z,41.67
2023-01-04T10:21:10.639Z,41.08
2023-01-04T10:22:26.065Z,39.83
2023-01-04T10:25:23.298Z,200.45
2023-01-04T10:28:14.807Z,49.75
2023-01-04T10:31:40.171Z,40.40
2023-01-04T10:34:31.347Z,40.15
2023-01-04T10:37:09.057Z,41.65
2023-01-04T10:39:38.058Z,41.08
2023-01-04T10:42:16.505Z,42.45
2023-01-04T10:45:16.139Z,38.83
2023-01-04T10:47:51.807Z,39.85
2023-01-04T10:50:39.275Z,45.17
2023-01-04T10:53:23.179Z,45.30
2023-01-04T10:56:40.321Z,45.92
2023-01-04T10:59:12.800Z,40.90
2023-01-04T11:01:52.359Z,44.60
2023-01-04T11:04:32.510Z,41.72
2023-01-04T11:07:40.986Z,45.28
2023-01-04T11:10:18.023Z,44.63
2023-01-04T11:12:45.986Z,42.00
2023-01-04T11:15:13.439Z,48.58
2023-01-04T11:17:42.001Z,47.97
2023-01-04T11:20:09.766Z,42.47
2023-01-04T11:22:41.039Z,46.67
2023-01-04T11:28:20.875Z,43.25
2023-01-04T11:31:08.019Z,42.58
2023-01-04T11:34:02.990Z,39.85
2023-01-04T11:36:34.015Z,43.08
2023-01-04T11:39:01.055Z,37.00
2023-01-04T11:41:28.707Z,41.70
2023-01-04T11:44:01.508Z,33.15
2023-01-04T11:46:29.851Z,33.20
2023-01-04T11:48:57.975Z,29.17
2023-01-04T11:51:33.525Z,30.27
2023-01-04T11:54:09.191Z,22.88
2023-01-04T11:56:39.433Z,19.15
2023-01-04T11:59:20.702Z,15.07
2023-01-04T12:02:10.752Z,19.00
2023-01-04T12:04:37.832Z,19.40
2023-01-04T12:07:23.988Z,15.80
2023-01-04T12:09:51.649Z,13.05
2023-01-04T12:12:21.382Z,13.00
2023-01-04T12:14:55.977Z,12.23
2023-01-04T12:17:56.292Z,13.48
2023-01-04T12:20:30.709Z,12.95
2023-01-04T12:25:51.594Z,14.00
2023-01-04T12:28:35.935Z,14.55
2023-01-04T12:31:21.953Z,13.25
2023-01-04T12:33:57.574Z,13.73
2023-01-04T12:36:39.069Z,21.40
2023-01-04T12:39:15.187Z,13.05
2023-01-04T12:41:43.461Z,18.00
2023-01-04T12:44:47.461Z,15.73
2023-01-04T12:47:39.142Z,18.10
2023-01-04T12:50:19.392Z,25.77
2023-01-04T12:53:10.769Z,23.55
2023-01-04T12:55:37.786Z,18.33
2023-01-04T13:01:28.480Z,22.05
2023-01-04T13:04:04.706Z,22.23
2023-01-04T13:06:36.190Z,25.35
2023-01-04T13:09:05.061Z,22.92
2023-01-04T13:11:51.613Z,22.45
2023-01-04T13:14:33.901Z,19.23
2023-01-04T13:17:15.617Z,16.50
2023-01-04T13:19:44.825Z,19.40
2023-01-04T13:22:30.395Z,17.50
2023-01-04T13:24:59.508Z,18.23
2023-01-04T13:27:27.690Z,19.13
2023-01-04T13:29:55.848Z,24.10
2023-01-04T13:32:28.976Z,24.30
2023-01-04T13:34:59.758Z,22.33
2023-01-04T13:37:49.113Z,22.58
2023-01-04T13:40:28.015Z,28.58
2023-01-04T13:43:26.099Z,21.98
2023-01-04T13:46:14.532Z,26.88
2023-01-04T13:48:45.379Z,23.45
2023-01-04T13:52:01.135Z,24.48
2023-01-04T13:54:40.936Z,23.92
2023-01-04T13:57:16.002Z,26.25
2023-01-04T13:59:54.801Z,28.17
2023-01-04T14:02:33.965Z,31.15
2023-01-04T14:05:03.437Z,27.73
2023-01-04T14:10:20.150Z,29.38
2023-01-04T14:12:48.805Z,29.88
2023-01-04T14:15:25.971Z,30.05
2023-01-04T14:17:55.960Z,29.67
2023-01-04T14:20:25.443Z,33.13
2023-01-04T14:22:57.035Z,30.27
2023-01-04T14:25:29.915Z,29.52
2023-01-04T14:28:19.252Z,30.17
2023-01-04T14:31:00.334Z,30.33
2023-01-04T14:33:32.931Z,28.23
2023-01-04T14:36:16.470Z,28.42
2023-01-04T14:38:58.093Z,28.33
2023-01-04T14:41:39.956Z,30.02
2023-01-04T14:44:22.801Z,28.50
2023-01-04T14:46:52.660Z,28.25
2023-01-04T14:49:23.199Z,28.33
2023-01-04T14:54:39.227Z,31.63
2023-01-04T14:57:08.866Z,37.22
2023-01-04T14:59:36.777Z,29.25
2023-01-04T15:02:05.529Z,30.95
2023-01-04T15:04:32.849Z,31.45
2023-01-04T15:07:11.925Z,30.90
2023-01-04T15:09:39.123Z,30.83
2023-01-04T15:12:06.738Z,34.42
2023-01-04T15:14:36.858Z,32.53
2023-01-04T15:17:03.848Z,31.80
2023-01-04T15:19:37.265Z,32.83
2023-01-04T15:22:10.337Z,38.33
2023-01-04T15:24:38.578Z,36.30
2023-01-04T15:27:24.432Z,42.10
2023-01-04T15:32:37.233Z,34.97
2023-01-04T15:35:07.814Z,39.47
2023-01-04T15:37:34.691Z,36.28
2023-01-04T15:40:03.185Z,38.05
2023-01-04T15:42:49.697Z,36.88
2023-01-04T15:45:21.380Z,36.58
2023-01-04T15:47:48.265Z,37.40
2023-01-04T15:50:15.601Z,36.90
2023-01-04T15:52:42.455Z,36.95
2023-01-04T15:55:12.764Z,37.47
2023-01-04T15:57:43.749Z,37.17
2023-01-04T16:00:12.816Z,44.47
2023-01-04T16:02:41.376Z,47.72
2023-01-04T16:05:17.823Z,37.85
2023-01-04T16:07:46.646Z,46.78
2023-01-04T16:10:16.825Z,38.88
2023-01-04T16:12:45.974Z,42.33
2023-01-04T16:15:25.837Z,43.67
2023-01-04T16:17:52.793Z,41.67
2023-01-04T16:20:46.995Z,39.65
2023-01-04T16:23:17.538Z,41.67
2023-01-04T16:25:47.483Z,39.58
2023-01-04T16:28:16.325Z,45.03
2023-01-04T16:30:45.205Z,44.30
2023-01-04T16:33:14.152Z,41.35
2023-01-04T16:35:41.006Z,43.28
2023-01-04T16:38:14.611Z,41.30
2023-01-04T16:40:44.301Z,52.05
2023-01-04T16:43:11.282Z,51.65
2023-01-04T16:45:39.562Z,47.30
2023-01-04T16:48:18.276Z,49.00
2023-01-04T16:50:55.853Z,44.80
2023-01-04T16:54:19.070Z,42.53
2023-01-04T16:56:50.709Z,47.22
2023-01-04T16:59:18.842Z,43.13
2023-01-04T17:01:58.332Z,49.25
2023-01-04T17:04:29.527Z,45.70
2023-01-04T17:06:58.791Z,42.70
2023-01-04T17:09:25.918Z,42.67
2023-01-04T17:15:14.984Z,46.55
2023-01-04T17:17:39.696Z,51.08
2023-01-04T17:20:13.661Z,53.63
2023-01-04T17:22:56.259Z,54.00
2023-01-04T17:25:23.237Z,52.45
2023-01-04T17:27:50.306Z,54.25
2023-01-04T17:30:17.350Z,57.28
2023-01-04T17:32:44.147Z,51.35
2023-01-04T17:35:10.985Z,46.20
2023-01-04T17:37:38.955Z,53.25
2023-01-04T17:40:06.312Z,43.22
2023-01-04T17:42:33.624Z,48.60
2023-01-04T17:45:00.456Z,53.97
2023-01-04T17:47:29.550Z,48.78
2023-01-04T17:49:56.400Z,51.58
2023-01-04T17:52:30.667Z,48.83
2023-01-04T17:54:58.581Z,55.92
2023-01-04T17:57:26.969Z,49.70
2023-01-04T17:59:53.989Z,43.92
2023-01-04T18:02:21.922Z,53.53
2023-01-04T18:04:50.695Z,52.15
2023-01-04T18:07:18.279Z,50.35
2023-01-04T18:09:45.102Z,51.17
2023-01-04T18:12:20.483Z,47.88
2023-01-04T18:14:48.047Z,49.92
2023-01-04T18:17:15.023Z,45.30
2023-01-04T18:19:46.260Z,47.00
2023-01-04T18:22:13.513Z,43.00
2023-01-04T18:24:40.804Z,42.75
2023-01-04T18:27:26.381Z,46.88
2023-01-04T18:29:55.442Z,43.53
2023-01-04T18:32:24.283Z,42.08
2023-01-04T18:34:51.428Z,47.35
2023-01-04T18:37:19.538Z,47.92
2023-01-04T18:39:47.939Z,49.30
2023-01-04T18:42:15.021Z,50.25
2023-01-04T18:44:47.876Z,49.33
2023-01-04T18:47:17.036Z,47.92
2023-01-04T18:49:43.998Z,47.20
2023-01-04T18:52:11.323Z,50.50
2023-01-04T18:54:39.257Z,49.75
2023-01-04T18:57:06.260Z,48.80
2023-01-04T18:59:34.846Z,52.70
2023-01-04T19:02:04.098Z,56.80
2023-01-04T19:04:33.318Z,55.72
2023-01-04T19:07:01.418Z,60.55
2023-01-04T19:09:28.517Z,60.15
2023-01-04T19:11:55.503Z,61.35
2023-01-04T19:14:26.858Z,63.55
2023-01-04T19:16:54.168Z,62.28
2023-01-04T19:19:22.045Z,57.47
2023-01-04T19:21:49.594Z,56.92
2023-01-04T19:24:16.754Z,57.55
2023-01-04T19:26:44.277Z,57.10
2023-01-04T19:29:11.717Z,60.42
2023-01-04T19:31:39.170Z,58.83
2023-01-04T19:34:12.844Z,57.58
2023-01-04T19:36:40.132Z,60.20
2023-01-04T19:39:09.499Z,62.20
2023-01-04T19:44:30.275Z,58.45
2023-01-04T19:46:57.963Z,64.97
2023-01-04T19:49:26.335Z,56.88
2023-01-04T19:51:53.222Z,62.95
2023-01-04T19:54:24.990Z,62.30
2023-01-04T19:56:54.020Z,59.58
2023-01-04T19:59:22.356Z,62.85
2023-01-04T20:01:49.559Z,63.35
2023-01-04T20:04:16.936Z,63.53
2023-01-04T20:06:51.487Z,66.50
2023-01-04T20:09:24.849Z,65.00
2023-01-04T20:11:54.866Z,63.35
2023-01-04T20:14:22.386Z,64.90
2023-01-04T20:16:50.797Z,67.70
2023-01-04T20:19:18.477Z,63.45
2023-01-04T20:21:50.808Z,66.38
2023-01-04T20:24:17.973Z,75.18
2023-01-04T20:26:46.570Z,71.03
2023-01-04T20:29:13.410Z,77.43
2023-01-04T20:31:45.604Z,67.35
2023-01-04T20:34:13.473Z,67.45
2023-01-04T20:36:40.733Z,47.17
2023-01-04T20:39:08.088Z,49.90
2023-01-04T20:41:34.936Z,46.55
2023-01-04T20:44:03.046Z,42.00
2023-01-04T20:46:36.848Z,41.00
2023-01-04T20:49:04.213Z,46.63
2023-01-04T20:51:31.632Z,36.53
2023-01-04T20:54:01.139Z,36.75
2023-01-04T20:56:35.409Z,44.13
2023-01-04T20:59:02.513Z,42.88
2023-01-04T21:01:37.866Z,43.15
2023-01-04T21:04:05.165Z,39.75
2023-01-04T21:06:33.286Z,45.75
2023-01-04T21:09:00.959Z,40.70
2023-01-04T21:11:28.252Z,35.92
2023-01-04T21:13:55.396Z,37.55
2023-01-04T21:16:23.461Z,36.97
2023-01-04T21:18:51.784Z,41.63
2023-01-04T21:21:19.750Z,38.70
2023-01-04T21:23:52.993Z,45.47
2023-01-04T21:26:23.222Z,40.22
2023-01-04T21:28:50.224Z,39.97
2023-01-04T21:31:22.149Z,36.40
2023-01-04T21:33:49.847Z,37.40
2023-01-04T21:36:19.405Z,35.13
2023-01-04T21:38:55.624Z,33.70
2023-01-04T21:41:26.728Z,34.25
2023-01-04T21:54:39.411Z,36.83
2023-01-04T21:57:09.834Z,37.45
2023-01-04T21:59:36.818Z,40.25
2023-01-04T22:02:07.339Z,43.35
2023-01-04T22:04:34.348Z,43.78
2023-01-04T22:07:08.926Z,39.80
2023-01-04T22:12:19.293Z,31.80
2023-01-04T22:14:55.920Z,35.85
2023-01-04T22:17:25.046Z,41.97
2023-01-04T22:19:51.971Z,42.15
2023-01-04T22:22:19.445Z,41.63
2023-01-04T22:24:46.306Z,33.40
2023-01-04T22:27:14.144Z,32.28
2023-01-04T22:29:40.995Z,33.88
2023-01-04T22:32:10.212Z,33.42
2023-01-04T22:34:37.509Z,33.25
2023-01-04T22:37:04.676Z,34.15
2023-01-04T22:39:33.687Z,37.30
2023-01-04T22:42:00.875Z,33.63
2023-01-04T22:44:27.805Z,35.90
2023-01-04T22:46:54.726Z,32.22
2023-01-04T22:49:21.779Z,35.65
2023-01-04T22:51:51.085Z,34.83
2023-01-04T22:54:18.260Z,38.60
2023-01-04T22:56:47.537Z,46.10
2023-01-04T22:59:14.658Z,39.00
2023-01-04T23:01:41.929Z,39.00
2023-01-04T23:04:17.587Z,38.17
2023-01-04T23:06:48.813Z,37.78
2023-01-04T23:09:17.333Z,34.75
2023-01-04T23:11:45.247Z,35.55
2023-01-04T23:14:15.652Z,35.17
2023-01-04T23:16:43.657Z,35.38
2023-01-04T23:19:13.277Z,33.03
2023-01-04T23:21:40.987Z,33.10
2023-01-04T23:24:12.538Z,37.35
2023-01-04T23:29:29.257Z,32.17
2023-01-04T23:31:59.534Z,37.58
2023-01-04T23:34:26.615Z,36.78
2023-01-04T23:36:54.947Z,33.53
2023-01-04T23:39:21.863Z,33.75
2023-01-04T23:41:48.928Z,35.00
2023-01-04T23:44:17.225Z,35.08
2023-01-04T23:46:45.220Z,35.00
2023-01-04T23:49:13.120Z,38.65
2023-01-04T23:51:40.241Z,38.17
2023-01-04T23:54:08.441Z,36.60
2023-01-04T23:56:35.905Z,40.83
2023-01-04T23:59:02.759Z,34.15
